Time;durP1;ratioP1;P1;durP2;ratioP2;P2;SDS_P1;SDS_P2;PMS_P1;PMS_P2;Temp;Humidity;BMP_temperature;BMP_pressure;BME280_temperature;BME280_humidity;BME280_pressure;Samples;Min_cycle;Max_cycle;Signal;HPM_P1;HPM_P2
2024/03/23 00:00:14;;;;;;;3.35;1.17;;;10.30;56.00;;;;;;5076376;28;20047;-63
2024/03/23 00:03:01;;;;;;;2.40;0.82;;;10.30;56.10;;;;;;5065086;28;20548;-63
2024/03/23 00:05:47;;;;;;;6.00;1.23;;;10.30;56.10;;;;;;5070596;28;20081;-64
2024/03/23 00:08:33;;;;;;;3.83;0.98;;;10.20;55.90;;;;;;5072966;28;20047;-63
2024/03/23 00:11:20;;;;;;;5.18;1.55;;;10.20;55.90;;;;;;5075410;28;20059;-63
2024/03/23 00:14:05;;;;;;;2.08;0.90;;;10.20;56.00;;;;;;5066312;28;20131;-63
2024/03/23 00:16:51;;;;;;;4.80;1.20;;;10.20;56.00;;;;;;5079272;28;20074;-62
2024/03/23 00:19:36;;;;;;;4.63;1.02;;;10.20;56.10;;;;;;5068854;28;20133;-63
2024/03/23 00:22:22;;;;;;;5.40;1.63;;;10.20;56.10;;;;;;5075473;28;20046;-62
2024/03/23 00:25:07;;;;;;;2.75;0.75;;;10.20;56.10;;;;;;5076202;28;20413;-62
2024/03/23 00:27:52;;;;;;;1.88;1.13;;;10.10;55.90;;;;;;5072623;28;20527;-63
2024/03/23 00:30:39;;;;;;;3.90;1.20;;;10.10;55.90;;;;;;5079085;28;20039;-63
2024/03/23 00:33:24;;;;;;;3.45;1.10;;;10.10;56.00;;;;;;5073355;28;20262;-63
2024/03/23 00:36:09;;;;;;;3.38;1.63;;;10.10;56.00;;;;;;5075392;28;20050;-62
2024/03/23 00:38:55;;;;;;;2.20;1.50;;;10.10;56.10;;;;;;5075475;28;20091;-63
2024/03/23 00:41:41;;;;;;;3.13;1.30;;;10.10;56.10;;;;;;5067289;27;20039;-63
2024/03/23 00:44:27;;;;;;;3.13;1.00;;;10.10;56.10;;;;;;5080014;28;20039;-62
2024/03/23 00:47:13;;;;;;;3.35;1.40;;;10.10;56.10;;;;;;5068392;28;20039;-63
2024/03/23 00:49:59;;;;;;;3.88;1.23;;;10.10;56.10;;;;;;5066792;28;20452;-63
2024/03/23 00:52:45;;;;;;;5.93;1.20;;;10.10;56.20;;;;;;5073284;28;20117;-63
2024/03/23 00:55:29;;;;;;;4.47;1.52;;;10.00;56.00;;;;;;5073145;28;20117;-63
2024/03/23 00:58:14;;;;;;;4.93;1.10;;;10.00;56.00;;;;;;5078040;28;20069;-62
2024/03/23 01:00:59;;;;;;;5.00;1.60;;;10.00;56.10;;;;;;5066825;28;20081;-63
2024/03/23 01:03:43;;;;;;;2.88;1.30;;;10.00;56.10;;;;;;5076207;28;20100;-62
2024/03/23 01:06:27;;;;;;;4.15;1.35;;;10.00;56.10;;;;;;5078631;28;20046;-63
2024/03/23 01:09:13;;;;;;;3.88;1.20;;;9.90;56.00;;;;;;5071011;28;20063;-63
2024/03/23 01:11:58;;;;;;;4.65;1.67;;;9.90;56.00;;;;;;5070478;28;20105;-64
2024/03/23 01:14:43;;;;;;;3.83;1.50;;;9.90;56.00;;;;;;5074074;28;20105;-70
2024/03/23 01:17:27;;;;;;;6.80;1.35;;;9.90;56.10;;;;;;5071098;28;20438;-62
2024/03/23 01:20:13;;;;;;;5.55;1.65;;;9.90;56.10;;;;;;5078538;28;20095;-63
2024/03/23 01:22:58;;;;;;;5.05;1.52;;;9.90;56.20;;;;;;5066689;28;20070;-62
2024/03/23 01:25:43;;;;;;;4.00;1.33;;;9.80;56.00;;;;;;5058494;28;20121;-64
2024/03/23 01:28:28;;;;;;;2.92;1.17;;;9.90;56.20;;;;;;5075192;28;20035;-62
2024/03/23 01:31:13;;;;;;;5.38;1.30;;;9.90;56.30;;;;;;5080807;28;20062;-63
2024/03/23 01:33:58;;;;;;;2.50;1.00;;;9.80;56.10;;;;;;5071626;28;20093;-62
2024/03/23 01:36:43;;;;;;;6.40;1.73;;;9.80;56.10;;;;;;5075296;28;20047;-64
2024/03/23 01:39:27;;;;;;;6.53;1.35;;;9.80;56.10;;;;;;5071145;28;20219;-64
2024/03/23 01:42:12;;;;;;;5.68;1.60;;;9.80;56.10;;;;;;5076980;28;20042;-65
2024/03/23 01:44:57;;;;;;;6.20;1.45;;;9.80;56.60;;;;;;5078349;28;20042;-62
2024/03/23 01:47:42;;;;;;;6.15;1.38;;;9.70;56.50;;;;;;5076068;28;20089;-63
2024/03/23 01:50:27;;;;;;;7.13;1.65;;;9.70;56.00;;;;;;5087594;28;20076;-64
2024/03/23 01:53:15;;;;;;;3.53;1.40;;;9.70;56.00;;;;;;5065791;28;20148;-62
2024/03/23 01:55:59;;;;;;;4.65;1.40;;;9.70;56.00;;;;;;5076584;28;20066;-63
2024/03/23 01:58:45;;;;;;;5.53;1.55;;;9.70;56.10;;;;;;5077882;28;20533;-62
2024/03/23 02:01:30;;;;;;;4.00;1.48;;;9.70;56.10;;;;;;5076372;28;20067;-63
2024/03/23 02:04:14;;;;;;;4.50;1.75;;;9.70;56.20;;;;;;5076725;28;20126;-63
2024/03/23 02:06:59;;;;;;;4.05;1.27;;;9.70;56.20;;;;;;5068890;28;21060;-64
2024/03/23 02:09:44;;;;;;;4.65;1.58;;;9.70;56.20;;;;;;5076540;28;20128;-62
2024/03/23 02:12:28;;;;;;;6.00;1.73;;;9.70;56.20;;;;;;5083623;28;20508;-63
2024/03/23 02:15:13;;;;;;;6.45;1.45;;;9.60;56.10;;;;;;5073976;28;20516;-63
2024/03/23 02:17:58;;;;;;;4.43;1.38;;;9.60;56.10;;;;;;5071067;28;20050;-62
2024/03/23 02:20:43;;;;;;;3.45;1.33;;;9.60;56.20;;;;;;5072819;28;20159;-61
2024/03/23 02:23:28;;;;;;;4.70;1.45;;;9.60;56.20;;;;;;5066235;28;20458;-62
2024/03/23 02:26:15;;;;;;;5.85;1.48;;;9.60;56.20;;;;;;5071826;28;20058;-62
2024/03/23 02:28:59;;;;;;;5.05;1.30;;;9.50;56.00;;;;;;5064277;28;20067;-60
2024/03/23 02:31:44;;;;;;;3.92;1.23;;;9.60;56.20;;;;;;5081824;28;20139;-63
2024/03/23 02:34:29;;;;;;;3.88;1.50;;;9.60;56.20;;;;;;5072138;28;20089;-62
2024/03/23 02:37:14;;;;;;;6.85;1.35;;;9.50;56.00;;;;;;5073236;28;20043;-62
2024/03/23 02:39:59;;;;;;;4.25;1.38;;;9.50;56.10;;;;;;5072664;28;20066;-61
2024/03/23 02:42:43;;;;;;;7.68;1.77;;;9.50;56.10;;;;;;5079759;28;20085;-62
2024/03/23 02:45:28;;;;;;;6.70;1.63;;;9.50;56.10;;;;;;5071375;28;20062;-62
2024/03/23 02:48:13;;;;;;;7.68;1.52;;;9.50;56.10;;;;;;5062998;28;20118;-62
2024/03/23 02:50:57;;;;;;;5.03;1.25;;;9.40;56.00;;;;;;5071661;28;20467;-62
2024/03/23 02:53:42;;;;;;;3.85;1.35;;;9.40;56.00;;;;;;5073128;28;20046;-63
2024/03/23 02:56:26;;;;;;;4.82;1.25;;;9.40;56.00;;;;;;5062542;27;20070;-61
2024/03/23 02:59:11;;;;;;;6.13;1.30;;;9.40;56.10;;;;;;5064264;28;20043;-61
2024/03/23 03:01:56;;;;;;;7.03;1.70;;;9.40;56.10;;;;;;5082909;28;20085;-62
2024/03/23 03:04:40;;;;;;;5.32;1.33;;;9.40;56.10;;;;;;5077426;28;20078;-62
2024/03/23 03:07:25;;;;;;;5.32;1.40;;;9.30;56.00;;;;;;5068817;28;20244;-62
2024/03/23 03:10:11;;;;;;;6.43;1.90;;;9.40;56.20;;;;;;5061647;28;20056;-62
2024/03/23 03:12:55;;;;;;;6.10;1.63;;;9.30;56.00;;;;;;5073902;28;20081;-62
2024/03/23 03:15:42;;;;;;;7.82;1.95;;;9.30;56.00;;;;;;5075156;28;20555;-63
2024/03/23 03:18:27;;;;;;;6.07;2.67;;;9.30;56.00;;;;;;5079738;28;20521;-61
2024/03/23 03:21:12;;;;;;;5.63;1.95;;;9.30;56.10;;;;;;5080467;28;20047;-62
2024/03/23 03:23:57;;;;;;;4.30;1.70;;;9.30;56.10;;;;;;5070247;28;20058;-62
2024/03/23 03:26:41;;;;;;;5.20;1.42;;;9.30;56.10;;;;;;5062646;28;20087;-62
2024/03/23 03:29:33;;;;;;;10.73;2.97;;;9.30;56.10;;;;;;5068108;28;20058;-62
2024/03/23 03:32:18;;;;;;;7.47;1.90;;;9.20;55.90;;;;;;5068743;28;20205;-62
2024/03/23 03:35:04;;;;;;;6.43;1.98;;;9.20;56.00;;;;;;5066412;28;20054;-62
2024/03/23 03:37:49;;;;;;;4.30;1.50;;;9.20;56.00;;;;;;5086018;28;20086;-62
2024/03/23 03:40:35;;;;;;;6.20;2.15;;;9.20;56.00;;;;;;5074620;28;20043;-62
2024/03/23 03:43:19;;;;;;;9.23;1.85;;;9.20;56.00;;;;;;5081988;28;20055;-62
2024/03/23 03:46:05;;;;;;;5.97;2.08;;;9.20;56.00;;;;;;5073088;28;20054;-62
2024/03/23 03:48:49;;;;;;;4.43;1.48;;;9.20;56.10;;;;;;5072006;28;20117;-62
2024/03/23 03:51:34;;;;;;;6.55;1.65;;;9.20;56.10;;;;;;5074392;28;20042;-62
2024/03/23 03:54:18;;;;;;;8.43;1.90;;;9.20;56.10;;;;;;5080283;28;20177;-63
2024/03/23 03:57:03;;;;;;;5.18;1.50;;;9.20;56.10;;;;;;5067619;28;20073;-62
2024/03/23 03:59:48;;;;;;;3.45;1.50;;;9.10;56.00;;;;;;5074517;28;20513;-63
2024/03/23 04:02:32;;;;;;;7.05;1.60;;;9.20;56.30;;;;;;5065565;28;20050;-62
2024/03/23 04:05:17;;;;;;;4.60;1.50;;;9.20;56.20;;;;;;5072811;28;20038;-62
2024/03/23 04:08:02;;;;;;;4.57;1.50;;;9.20;56.30;;;;;;5077904;28;20038;-62
2024/03/23 04:10:50;;;;;;;4.85;1.25;;;9.10;56.10;;;;;;5066362;28;20121;-62
2024/03/23 04:13:34;;;;;;;4.82;1.92;;;9.20;56.30;;;;;;5082407;28;20078;-60
2024/03/23 04:16:29;;;;;;;4.65;1.70;;;9.10;56.10;;;;;;5070974;28;20425;-62
2024/03/23 04:19:14;;;;;;;4.63;1.80;;;9.10;56.10;;;;;;5090298;28;20143;-62
2024/03/23 04:21:58;;;;;;;5.50;1.73;;;9.10;56.10;;;;;;5078372;28;20079;-62
2024/03/23 04:24:43;;;;;;;6.93;1.48;;;9.10;56.10;;;;;;5069534;28;20097;-62
2024/03/23 04:27:28;;;;;;;6.20;2.40;;;9.10;56.20;;;;;;5068592;28;20334;-62
2024/03/23 04:30:12;;;;;;;5.63;1.60;;;9.10;56.20;;;;;;5064261;28;20556;-62
2024/03/23 04:32:58;;;;;;;6.75;2.58;;;9.10;56.20;;;;;;5076697;28;20447;-61
2024/03/23 04:35:43;;;;;;;4.70;1.58;;;9.10;56.20;;;;;;5066527;28;20107;-62
2024/03/23 04:38:28;;;;;;;7.70;1.50;;;9.10;56.30;;;;;;5066776;28;20545;-62
2024/03/23 04:41:12;;;;;;;4.95;1.73;;;9.10;56.30;;;;;;5064524;28;20043;-62
2024/03/23 04:43:57;;;;;;;9.35;1.75;;;9.10;56.30;;;;;;5067222;28;20198;-62
2024/03/23 04:46:42;;;;;;;3.85;1.30;;;9.10;56.30;;;;;;5074656;28;20081;-62
2024/03/23 04:49:26;;;;;;;4.43;1.30;;;9.10;56.40;;;;;;5054331;28;20039;-62
2024/03/23 04:52:12;;;;;;;5.13;1.27;;;9.10;56.40;;;;;;5078686;28;20074;-62
2024/03/23 04:54:57;;;;;;;8.30;2.35;;;9.10;56.40;;;;;;5071428;28;20061;-62
2024/03/23 04:57:42;;;;;;;3.90;1.27;;;9.10;56.40;;;;;;5077301;28;20134;-63
2024/03/23 05:00:27;;;;;;;5.32;1.45;;;9.10;56.50;;;;;;5074287;27;20047;-63
2024/03/23 05:03:23;;;;;;;7.03;2.08;;;9.00;56.30;;;;;;5073873;28;20070;-62
2024/03/23 05:06:08;;;;;;;8.35;1.75;;;9.10;56.50;;;;;;5072948;28;20047;-63
2024/03/23 05:08:52;;;;;;;6.15;1.42;;;9.00;56.30;;;;;;5080860;28;20112;-61
2024/03/23 05:11:38;;;;;;;5.40;1.67;;;9.00;56.30;;;;;;5073302;28;20291;-62
2024/03/23 05:14:22;;;;;;;6.20;1.73;;;9.00;56.40;;;;;;5083052;28;20034;-62
2024/03/23 05:17:07;;;;;;;5.47;1.65;;;9.00;56.40;;;;;;5065222;28;20116;-62
2024/03/23 05:19:52;;;;;;;6.25;1.67;;;9.00;56.40;;;;;;5082664;28;20116;-62
2024/03/23 05:22:37;;;;;;;4.32;1.23;;;9.00;56.50;;;;;;5077918;28;20043;-62
2024/03/23 05:25:22;;;;;;;5.22;1.70;;;9.00;56.50;;;;;;5067583;28;20504;-62
2024/03/23 05:28:07;;;;;;;4.53;1.67;;;8.90;56.40;;;;;;5076210;28;20676;-62
2024/03/23 05:30:53;;;;;;;2.95;1.10;;;9.00;56.60;;;;;;5089736;28;20038;-62
2024/03/23 05:33:38;;;;;;;5.93;1.60;;;8.90;56.50;;;;;;5070260;28;20036;-62
2024/03/23 05:36:25;;;;;;;5.47;1.33;;;9.00;56.70;;;;;;5080747;28;20049;-63
2024/03/23 05:39:10;;;;;;;6.88;1.85;;;9.00;56.70;;;;;;5079238;28;20289;-62
2024/03/23 05:41:55;;;;;;;4.43;1.27;;;9.00;56.80;;;;;;5051925;28;20197;-64
2024/03/23 05:44:39;;;;;;;6.90;1.58;;;8.90;56.60;;;;;;5080538;28;20035;-62
2024/03/23 05:47:24;;;;;;;5.78;1.35;;;8.90;56.60;;;;;;5071986;28;20114;-62
2024/03/23 05:50:12;;;;;;;7.80;1.42;;;8.90;56.70;;;;;;5071708;28;20327;-63
2024/03/23 05:52:57;;;;;;;6.15;1.30;;;8.90;56.70;;;;;;5063265;28;20146;-63
2024/03/23 05:55:42;;;;;;;8.95;1.90;;;8.90;56.70;;;;;;5073737;28;20139;-63
2024/03/23 05:58:27;;;;;;;8.30;1.92;;;8.90;56.70;;;;;;5066512;28;20135;-62
2024/03/23 06:01:12;;;;;;;5.75;1.83;;;8.90;56.70;;;;;;5064794;28;20631;-63
2024/03/23 06:03:57;;;;;;;3.40;1.58;;;8.90;56.70;;;;;;5075973;28;20080;-62
2024/03/23 06:06:42;;;;;;;7.93;1.48;;;8.90;56.70;;;;;;5072886;28;20032;-62
2024/03/23 06:09:26;;;;;;;7.45;1.60;;;8.90;56.70;;;;;;5066261;28;20105;-63
2024/03/23 06:12:11;;;;;;;5.40;1.50;;;8.90;56.70;;;;;;5070676;28;20031;-63
2024/03/23 06:14:56;;;;;;;9.90;1.77;;;8.90;56.70;;;;;;5072993;28;20279;-62
2024/03/23 06:17:41;;;;;;;5.72;1.50;;;8.90;56.70;;;;;;5072897;28;20322;-62
2024/03/23 06:20:26;;;;;;;6.82;1.30;;;8.90;56.70;;;;;;5075958;28;20614;-64
2024/03/23 06:23:12;;;;;;;5.97;1.60;;;8.90;56.70;;;;;;5069392;28;20047;-62
2024/03/23 06:25:57;;;;;;;7.45;1.80;;;8.90;56.70;;;;;;5078061;28;20058;-63
2024/03/23 06:28:42;;;;;;;7.45;2.75;;;8.90;56.70;;;;;;5080155;28;20058;-64
2024/03/23 06:31:28;;;;;;;5.50;1.65;;;8.90;56.70;;;;;;5075675;28;20276;-62
2024/03/23 06:34:15;;;;;;;5.97;1.65;;;8.90;56.70;;;;;;5072978;28;20472;-62
2024/03/23 06:37:00;;;;;;;5.10;1.73;;;8.90;56.80;;;;;;5076514;28;20054;-62
2024/03/23 06:39:46;;;;;;;7.22;1.95;;;8.90;56.70;;;;;;5080534;28;20078;-63
2024/03/23 06:42:30;;;;;;;8.05;2.08;;;9.00;56.90;;;;;;5071427;28;20043;-63
2024/03/23 06:45:15;;;;;;;4.40;1.60;;;9.00;56.90;;;;;;5074239;28;20043;-62
2024/03/23 06:48:00;;;;;;;5.05;1.55;;;9.00;56.90;;;;;;5078977;28;20086;-63
2024/03/23 06:50:46;;;;;;;5.78;1.85;;;9.00;56.90;;;;;;5084832;28;20269;-62
2024/03/23 06:53:30;;;;;;;5.72;1.73;;;9.10;57.00;;;;;;5076492;28;20097;-62
2024/03/23 06:56:15;;;;;;;6.57;1.88;;;9.10;56.90;;;;;;5071347;28;20615;-63
2024/03/23 06:58:59;;;;;;;7.10;1.23;;;9.10;57.30;;;;;;5072713;28;20545;-63
2024/03/23 07:01:44;;;;;;;7.28;1.92;;;9.20;57.00;;;;;;5080940;28;20120;-63
2024/03/23 07:04:32;;;;;;;6.63;1.60;;;9.20;57.30;;;;;;5081657;28;20054;-63
2024/03/23 07:07:16;;;;;;;9.48;2.25;;;9.30;57.10;;;;;;5070998;28;20048;-65
2024/03/23 07:10:01;;;;;;;6.05;1.48;;;9.30;57.10;;;;;;5077228;28;20058;-62
2024/03/23 07:12:45;;;;;;;5.53;1.58;;;9.40;57.20;;;;;;5090073;28;20046;-62
2024/03/23 07:15:30;;;;;;;12.77;2.60;;;9.40;57.00;;;;;;5079635;28;20418;-63
2024/03/23 07:18:14;;;;;;;4.15;1.20;;;9.50;57.10;;;;;;5077785;28;20083;-61
2024/03/23 07:21:01;;;;;;;5.47;2.00;;;9.50;57.00;;;;;;5070853;28;20047;-63
2024/03/23 07:23:46;;;;;;;9.05;1.75;;;9.60;57.10;;;;;;5070952;28;20140;-62
2024/03/23 07:26:30;;;;;;;7.70;1.50;;;9.70;57.10;;;;;;5069226;28;20047;-62
2024/03/23 07:29:15;;;;;;;4.93;1.75;;;9.80;57.20;;;;;;5074550;28;20152;-62
2024/03/23 07:32:00;;;;;;;7.72;2.00;;;9.80;57.10;;;;;;5085914;28;20245;-63
2024/03/23 07:34:45;;;;;;;8.35;1.75;;;9.90;57.20;;;;;;5080188;28;20146;-62
2024/03/23 07:37:32;;;;;;;3.80;1.08;;;10.00;57.60;;;;;;5076030;28;20157;-62
2024/03/23 07:40:17;;;;;;;6.22;1.80;;;10.20;58.50;;;;;;5072246;28;20039;-62
2024/03/23 07:43:02;;;;;;;6.63;1.27;;;10.40;59.30;;;;;;5074792;28;20121;-61
2024/03/23 07:45:53;;;;;;;10.48;2.17;;;10.70;60.20;;;;;;5092810;28;20177;-62
2024/03/23 07:48:40;;;;;;;5.03;1.20;;;11.00;60.80;;;;;;5072687;28;20104;-62
2024/03/23 07:51:25;;;;;;;6.07;1.65;;;11.30;60.90;;;;;;5074222;28;20753;-61
2024/03/23 07:54:09;;;;;;;7.75;1.60;;;11.50;61.10;;;;;;5076571;27;20935;-62
2024/03/23 07:56:54;;;;;;;7.03;1.38;;;11.60;61.00;;;;;;5069624;28;20235;-62
2024/03/23 07:59:39;;;;;;;3.53;1.38;;;11.70;61.10;;;;;;5074378;28;20039;-61
2024/03/23 08:02:23;;;;;;;4.50;2.10;;;11.80;61.00;;;;;;5075222;28;20646;-62
2024/03/23 08:05:08;;;;;;;5.18;1.55;;;11.80;60.90;;;;;;5075170;28;20100;-64
2024/03/23 08:07:53;;;;;;;5.07;1.40;;;11.80;60.70;;;;;;5069443;28;20039;-61
2024/03/23 08:10:48;;;;;;;7.70;1.52;;;11.90;60.80;;;;;;5076120;28;20168;-62
2024/03/23 08:13:33;;;;;;;6.85;1.52;;;12.00;60.80;;;;;;5071220;28;20063;-62
2024/03/23 08:16:17;;;;;;;8.30;2.30;;;12.00;60.60;;;;;;5073274;28;20746;-62
2024/03/23 08:19:03;;;;;;;7.32;1.30;;;12.00;60.40;;;;;;5072852;28;20038;-62
2024/03/23 08:21:50;;;;;;;4.57;1.45;;;12.10;60.40;;;;;;5073113;28;20035;-62
2024/03/23 08:24:35;;;;;;;8.35;1.88;;;12.20;60.30;;;;;;5071196;28;20035;-62
2024/03/23 08:27:19;;;;;;;4.95;1.45;;;12.20;60.10;;;;;;5067666;28;20351;-63
2024/03/23 08:30:04;;;;;;;9.10;1.88;;;12.30;60.10;;;;;;5078372;28;20054;-64
2024/03/23 08:32:49;;;;;;;7.15;1.65;;;12.30;60.40;;;;;;5073984;28;20077;-62
2024/03/23 08:35:34;;;;;;;8.27;1.48;;;12.40;59.90;;;;;;5074459;28;20514;-62
2024/03/23 08:38:19;;;;;;;8.00;1.80;;;12.30;59.50;;;;;;5074166;28;20082;-64
2024/03/23 08:41:11;;;;;;;6.32;1.30;;;12.40;59.50;;;;;;5071568;28;20043;-63
2024/03/23 08:43:56;;;;;;;8.07;1.77;;;12.50;59.50;;;;;;5067833;28;20176;-63
2024/03/23 08:46:41;;;;;;;4.43;1.80;;;12.50;59.30;;;;;;5073768;28;20059;-63
2024/03/23 08:49:25;;;;;;;6.30;1.60;;;12.60;59.20;;;;;;5077331;28;20385;-62
2024/03/23 08:52:10;;;;;;;7.88;1.88;;;12.60;59.00;;;;;;5069069;28;20055;-62
2024/03/23 08:54:55;;;;;;;4.72;1.73;;;12.70;59.00;;;;;;5070840;28;20373;-62
2024/03/23 08:57:40;;;;;;;8.30;2.00;;;12.70;58.80;;;;;;5067667;28;20133;-62
2024/03/23 09:00:25;;;;;;;7.63;1.70;;;12.70;58.60;;;;;;5066505;28;20798;-63
2024/03/23 09:03:09;;;;;;;5.88;1.73;;;12.80;58.60;;;;;;5077331;28;20076;-62
2024/03/23 09:05:55;;;;;;;3.92;1.50;;;12.80;58.50;;;;;;5070471;28;20085;-63
2024/03/23 09:08:40;;;;;;;5.80;1.80;;;12.80;58.40;;;;;;5065138;28;20603;-62
2024/03/23 09:11:25;;;;;;;3.78;1.40;;;12.90;58.40;;;;;;5072691;28;20116;-61
2024/03/23 09:14:10;;;;;;;4.95;1.85;;;12.90;58.20;;;;;;5073359;28;20558;-62
2024/03/23 09:16:55;;;;;;;4.47;1.50;;;12.80;57.90;;;;;;5068132;28;20101;-63
2024/03/23 09:19:40;;;;;;;3.85;1.70;;;12.90;58.00;;;;;;5072127;28;20086;-62
2024/03/23 09:22:24;;;;;;;5.40;1.27;;;12.90;57.80;;;;;;5072228;28;20047;-62
2024/03/23 09:25:09;;;;;;;3.28;1.17;;;12.90;57.60;;;;;;5070045;28;20043;-62
2024/03/23 09:27:53;;;;;;;3.25;1.50;;;12.90;57.50;;;;;;5068423;28;20039;-61
2024/03/23 09:30:47;;;;;;;5.72;1.48;;;12.90;57.50;;;;;;5074058;28;20461;-61
2024/03/23 09:33:32;;;;;;;4.18;1.48;;;13.00;57.50;;;;;;5058343;28;20043;-62
2024/03/23 09:36:20;;;;;;;10.65;1.60;;;13.00;57.40;;;;;;5078604;28;20097;-62
2024/03/23 09:39:09;;;;;;;5.82;1.50;;;13.00;57.30;;;;;;5067832;28;20082;-62
2024/03/23 09:42:00;;;;;;;8.88;2.72;;;13.10;57.40;;;;;;5071900;28;20039;-63
2024/03/23 09:44:45;;;;;;;4.03;1.30;;;13.10;57.20;;;;;;5083398;28;20112;-62
2024/03/23 09:47:29;;;;;;;5.18;1.60;;;13.20;57.30;;;;;;5079261;28;20030;-62
2024/03/23 09:50:14;;;;;;;6.57;2.53;;;13.30;57.20;;;;;;5068504;28;20726;-62
2024/03/23 09:52:59;;;;;;;3.50;1.23;;;13.40;57.20;;;;;;5067426;28;20305;-62
2024/03/23 09:55:45;;;;;;;3.63;1.38;;;13.40;57.10;;;;;;5067699;28;20074;-64
2024/03/23 09:58:32;;;;;;;3.45;1.20;;;13.50;57.10;;;;;;5069589;28;20060;-62
2024/03/23 10:01:16;;;;;;;4.20;1.60;;;13.50;56.90;;;;;;5068909;28;20248;-62
2024/03/23 10:04:02;;;;;;;6.07;1.30;;;13.60;56.90;;;;;;5075834;28;20047;-62
2024/03/23 10:06:46;;;;;;;6.95;1.38;;;13.60;56.70;;;;;;5073008;28;20039;-62
2024/03/23 10:09:31;;;;;;;3.15;0.95;;;13.70;56.70;;;;;;5060091;28;20098;-62
2024/03/23 10:12:18;;;;;;;3.60;1.05;;;13.70;56.50;;;;;;5069113;28;20459;-63
2024/03/23 10:15:18;;;;;;;4.97;1.58;;;13.70;56.40;;;;;;5081632;28;20084;-63
2024/03/23 10:18:19;;;;;;;5.22;1.00;;;13.70;56.20;;;;;;5082426;28;20554;-62
2024/03/23 10:21:11;;;;;;;7.90;1.00;;;13.70;56.50;;;;;;5075677;28;20244;-62
2024/03/23 10:23:55;;;;;;;4.03;0.98;;;13.90;57.30;;;;;;5077507;28;20173;-63
2024/03/23 10:26:40;;;;;;;3.78;0.85;;;14.00;57.80;;;;;;5071462;28;20068;-63
2024/03/23 10:29:27;;;;;;;4.05;0.73;;;14.20;58.10;;;;;;5082047;28;20115;-63
2024/03/23 10:32:13;;;;;;;2.60;0.90;;;14.50;58.60;;;;;;5072930;28;20238;-62
2024/03/23 10:35:14;;;;;;;4.43;0.90;;;14.70;58.90;;;;;;5086715;28;20712;-63
2024/03/23 10:37:59;;;;;;;6.82;1.42;;;15.00;59.20;;;;;;5078403;28;20042;-64
2024/03/23 10:40:44;;;;;;;1.90;0.65;;;15.20;59.00;;;;;;5077726;28;20089;-63
2024/03/23 10:43:39;;;;;;;3.65;0.90;;;15.40;59.10;;;;;;5078915;28;20078;-62
2024/03/23 10:46:24;;;;;;;3.67;0.98;;;15.50;59.00;;;;;;5080909;28;20058;-63
2024/03/23 10:49:08;;;;;;;7.75;1.08;;;15.70;59.20;;;;;;5076131;28;20050;-63
2024/03/23 10:51:53;;;;;;;2.63;0.73;;;15.70;59.60;;;;;;5068514;28;20133;-65
2024/03/23 10:54:41;;;;;;;2.33;1.02;;;15.80;59.20;;;;;;5073112;28;20181;-63
2024/03/23 10:57:41;;;;;;;2.72;1.00;;;15.80;59.30;;;;;;5072143;28;20086;-64
2024/03/23 11:00:26;;;;;;;5.13;1.38;;;15.80;59.50;;;;;;5078584;28;20038;-65
2024/03/23 11:03:33;;;;;;;3.58;0.70;;;15.70;59.40;;;;;;5076115;28;20170;-64
2024/03/23 11:06:40;;;;;;;1.63;1.10;;;15.80;59.80;;;;;;5082458;28;20071;-69
2024/03/23 11:09:40;;;;;;;2.75;0.90;;;15.90;59.90;;;;;;5090722;27;20545;-62
2024/03/23 11:12:35;;;;;;;3.15;0.85;;;15.90;59.80;;;;;;5077971;28;20071;-63
2024/03/23 11:15:20;;;;;;;7.05;1.05;;;16.00;59.90;;;;;;5074127;28;20519;-63
2024/03/23 11:18:08;;;;;;;1.98;0.70;;;16.10;59.90;;;;;;5076260;28;20307;-68
2024/03/23 11:20:54;;;;;;;4.70;0.90;;;16.20;59.70;;;;;;5074606;28;20537;-62
2024/03/23 11:23:38;;;;;;;3.17;1.33;;;16.20;59.50;;;;;;5076125;28;20513;-62
2024/03/23 11:26:23;;;;;;;4.55;1.10;;;16.30;59.70;;;;;;5081686;28;20077;-63
2024/03/23 11:29:13;;;;;;;4.53;0.95;;;16.20;59.50;;;;;;5077628;28;20066;-64
2024/03/23 11:31:58;;;;;;;2.67;0.60;;;16.30;59.60;;;;;;5071752;27;20047;-61
2024/03/23 11:34:43;;;;;;;2.38;0.73;;;16.40;59.70;;;;;;5081387;28;20054;-63
2024/03/23 11:37:28;;;;;;;3.17;0.95;;;16.40;59.50;;;;;;5073208;28;20031;-62
2024/03/23 11:40:20;;;;;;;2.30;1.05;;;16.50;59.50;;;;;;5074934;28;20093;-62
2024/03/23 11:43:07;;;;;;;3.58;0.85;;;16.50;59.30;;;;;;5078782;28;20418;-63
2024/03/23 11:45:53;;;;;;;2.17;0.60;;;16.60;59.30;;;;;;5082499;28;20614;-63
2024/03/23 11:48:38;;;;;;;1.98;0.85;;;16.60;59.10;;;;;;5083072;28;20236;-61
2024/03/23 11:51:23;;;;;;;2.55;0.60;;;16.70;59.10;;;;;;5080401;28;20532;-61
2024/03/23 11:54:08;;;;;;;3.15;0.80;;;16.70;58.90;;;;;;5073692;28;20047;-60
2024/03/23 11:56:58;;;;;;;2.60;1.00;;;16.60;58.50;;;;;;5066219;28;20114;-63
2024/03/23 11:59:46;;;;;;;3.85;2.10;;;16.60;58.30;;;;;;5078000;28;20174;-61
2024/03/23 12:02:31;;;;;;;7.22;2.15;;;16.60;58.40;;;;;;5070437;28;20062;-61
2024/03/23 12:05:16;;;;;;;6.53;1.95;;;16.70;58.90;;;;;;5075137;28;20112;-61
2024/03/23 12:08:23;;;;;;;7.07;1.60;;;16.80;59.00;;;;;;5074752;28;20047;-60
2024/03/23 12:11:16;;;;;;;3.55;1.80;;;16.90;58.80;;;;;;5076714;28;20120;-61
2024/03/23 12:14:02;;;;;;;6.80;1.88;;;17.10;58.80;;;;;;5080069;28;20090;-60
2024/03/23 12:16:46;;;;;;;5.28;1.48;;;17.20;58.70;;;;;;5073917;28;20550;-61
2024/03/23 12:19:31;;;;;;;2.88;1.90;;;17.40;58.60;;;;;;5062600;28;20050;-62
2024/03/23 12:22:21;;;;;;;3.67;1.58;;;17.50;58.30;;;;;;5081946;28;20039;-61
2024/03/23 12:25:06;;;;;;;2.22;1.10;;;17.60;57.90;;;;;;5071300;28;20522;-63
2024/03/23 12:27:51;;;;;;;5.55;2.15;;;17.60;57.60;;;;;;5073741;28;20418;-61
2024/03/23 12:30:39;;;;;;;2.53;0.95;;;17.50;57.30;;;;;;5079379;27;20042;-62
2024/03/23 12:33:24;;;;;;;5.10;1.17;;;17.50;57.10;;;;;;5072282;28;20088;-63
2024/03/23 12:36:09;;;;;;;3.35;0.88;;;17.40;57.00;;;;;;5076783;28;20573;-63
2024/03/23 12:38:54;;;;;;;1.40;0.80;;;17.40;57.00;;;;;;5070746;27;20077;-63
2024/03/23 12:41:41;;;;;;;2.55;1.42;;;17.30;56.70;;;;;;5075380;28;20100;-62
2024/03/23 12:44:26;;;;;;;3.83;1.27;;;17.30;56.80;;;;;;5073623;28;20082;-61
2024/03/23 12:47:11;;;;;;;1.45;0.80;;;17.30;56.50;;;;;;5070745;28;20646;-61
2024/03/23 12:49:56;;;;;;;1.25;0.80;;;17.20;56.20;;;;;;5076613;28;20365;-61
2024/03/23 12:52:41;;;;;;;1.88;0.98;;;17.30;56.40;;;;;;5078529;28;20039;-62
2024/03/23 12:55:26;;;;;;;2.80;0.70;;;17.20;56.10;;;;;;5080976;28;20039;-61
2024/03/23 12:58:11;;;;;;;3.65;1.13;;;17.20;56.10;;;;;;5075849;28;20451;-61
2024/03/23 13:00:59;;;;;;;1.83;0.70;;;17.20;56.10;;;;;;5065910;28;20138;-61
2024/03/23 13:03:46;;;;;;;2.13;1.00;;;17.30;56.40;;;;;;5079659;28;20400;-62
2024/03/23 13:06:33;;;;;;;4.90;1.20;;;17.40;56.60;;;;;;5074670;28;20388;-60
2024/03/23 13:09:18;;;;;;;2.63;1.45;;;17.50;56.70;;;;;;5078614;28;20039;-61
2024/03/23 13:12:03;;;;;;;3.22;0.80;;;17.70;56.90;;;;;;5075554;28;20615;-61
2024/03/23 13:14:48;;;;;;;4.43;0.70;;;17.90;57.00;;;;;;5089402;28;20066;-61
2024/03/23 13:17:32;;;;;;;3.05;1.17;;;18.00;56.80;;;;;;5074729;28;20484;-60
2024/03/23 13:20:17;;;;;;;1.75;0.80;;;18.10;56.60;;;;;;5074987;28;20084;-60
2024/03/23 13:23:02;;;;;;;0.98;0.70;;;18.20;56.60;;;;;;5079976;28;20500;-60
2024/03/23 13:25:52;;;;;;;1.95;0.70;;;18.30;56.50;;;;;;5071609;28;20373;-61
2024/03/23 13:28:37;;;;;;;2.00;0.73;;;18.40;57.00;;;;;;5077811;28;20071;-60
2024/03/23 13:31:22;;;;;;;2.58;0.63;;;18.50;56.30;;;;;;5074131;28;20149;-61
2024/03/23 13:34:06;;;;;;;1.70;0.63;;;18.60;56.80;;;;;;5083439;28;20042;-60
2024/03/23 13:36:51;;;;;;;3.08;1.02;;;18.70;56.10;;;;;;5078662;28;20100;-61
2024/03/23 13:39:36;;;;;;;1.48;0.68;;;18.70;56.10;;;;;;5071710;28;20540;-60
2024/03/23 13:42:24;;;;;;;3.00;0.80;;;18.80;56.10;;;;;;5078171;28;20147;-60
2024/03/23 13:45:11;;;;;;;1.90;0.68;;;19.00;56.20;;;;;;5073422;28;20093;-59
2024/03/23 13:47:56;;;;;;;2.97;0.70;;;19.10;56.10;;;;;;5071118;28;20362;-60
2024/03/23 13:50:41;;;;;;;2.13;1.23;;;19.20;56.10;;;;;;5075769;28;20038;-60
2024/03/23 13:53:26;;;;;;;1.08;0.60;;;19.20;55.80;;;;;;5071250;28;20436;-60
2024/03/23 13:56:10;;;;;;;2.05;0.73;;;19.20;55.60;;;;;;5073647;28;20515;-60
2024/03/23 13:58:56;;;;;;;1.15;0.57;;;19.30;55.70;;;;;;5071976;28;20109;-61
2024/03/23 14:01:42;;;;;;;1.50;0.47;;;19.30;55.70;;;;;;5075265;28;20514;-61
2024/03/23 14:04:27;;;;;;;2.47;0.60;;;19.20;55.30;;;;;;5073241;28;20039;-61
2024/03/23 14:07:11;;;;;;;1.58;0.57;;;19.10;54.80;;;;;;5072474;28;20044;-60
2024/03/23 14:10:02;;;;;;;3.25;0.95;;;19.00;54.50;;;;;;5064430;28;20093;-60
2024/03/23 14:12:46;;;;;;;0.82;0.60;;;18.90;54.30;;;;;;5076329;28;20197;-61
2024/03/23 14:15:31;;;;;;;1.10;0.50;;;18.80;54.20;;;;;;5077185;28;20476;-61
2024/03/23 14:18:16;;;;;;;1.63;0.57;;;18.80;54.50;;;;;;5079601;28;20039;-62
2024/03/23 14:21:01;;;;;;;2.55;0.52;;;18.70;54.30;;;;;;5075413;28;20042;-61
2024/03/23 14:23:45;;;;;;;1.67;0.75;;;18.70;54.30;;;;;;5071715;28;20189;-61
2024/03/23 14:26:30;;;;;;;1.85;0.70;;;18.80;54.90;;;;;;5078157;28;20143;-60